Time;durP1;ratioP1;P1;durP2;ratioP2;P2;SDS_P1;SDS_P2;PMS_P1;PMS_P2;Temp;Humidity;BMP_temperature;BMP_pressure;BME280_temperature;BME280_humidity;BME280_pressure;Samples;Min_cycle;Max_cycle;Signal;HPM_P1;HPM_P2
2021/11/09 00:01:28;;;;;;;11.10;5.10;;;7.70;99.90;;;;;;4999132;28;20964;-48
2021/11/09 00:04:02;;;;;;;13.20;5.53;;;7.90;99.90;;;;;;4999801;28;20468;-49
2021/11/09 00:06:31;;;;;;;14.60;6.60;;;7.80;99.90;;;;;;4999964;28;20424;-50
2021/11/09 00:08:58;;;;;;;7.90;5.00;;;7.60;99.90;;;;;;4997462;28;20781;-48
2021/11/09 00:11:25;;;;;;;16.43;5.27;;;7.60;99.90;;;;;;5001008;28;20445;-50
2021/11/09 00:13:52;;;;;;;9.70;5.10;;;7.60;99.90;;;;;;5000165;28;21046;-50
2021/11/09 00:16:18;;;;;;;8.43;5.07;;;7.50;99.90;;;;;;5002689;28;20417;-48
2021/11/09 00:18:45;;;;;;;9.00;4.60;;;7.70;99.90;;;;;;4999410;28;20473;-52
2021/11/09 00:21:11;;;;;;;7.17;5.00;;;7.80;99.90;;;;;;4998445;28;20440;-49
2021/11/09 00:23:37;;;;;;;8.83;5.17;;;8.00;99.90;;;;;;4999453;28;20965;-53
2021/11/09 00:26:03;;;;;;;9.50;4.63;;;8.10;99.90;;;;;;4999907;28;20460;-50
2021/11/09 00:28:29;;;;;;;11.37;4.90;;;8.20;99.90;;;;;;5000754;28;20428;-49
2021/11/09 00:30:54;;;;;;;9.30;5.20;;;8.40;99.90;;;;;;4996538;28;21426;-51
2021/11/09 00:33:20;;;;;;;6.10;4.77;;;8.50;99.90;;;;;;5001554;28;20202;-53
2021/11/09 00:35:46;;;;;;;10.27;5.37;;;8.30;99.90;;;;;;4996143;28;20189;-49
2021/11/09 00:38:12;;;;;;;9.03;4.70;;;8.50;99.90;;;;;;5001856;28;20594;-52
2021/11/09 00:40:40;;;;;;;7.03;4.63;;;8.50;99.90;;;;;;5005951;28;20538;-49
2021/11/09 00:43:08;;;;;;;8.90;5.50;;;8.60;99.90;;;;;;5001696;28;20459;-50
2021/11/09 00:45:34;;;;;;;8.83;4.90;;;8.70;99.90;;;;;;5005280;28;20841;-49
2021/11/09 00:48:00;;;;;;;9.97;5.90;;;8.80;99.90;;;;;;5005851;28;20831;-51
2021/11/09 00:50:28;;;;;;;9.77;6.13;;;8.80;99.90;;;;;;5006375;28;20434;-52
2021/11/09 00:52:54;;;;;;;9.17;6.50;;;8.80;99.90;;;;;;5004041;28;20557;-49
2021/11/09 00:55:20;;;;;;;8.50;5.47;;;8.80;99.90;;;;;;5000814;28;20542;-50
2021/11/09 00:57:48;;;;;;;17.10;6.27;;;8.80;99.90;;;;;;5003044;28;20523;-51
2021/11/09 01:00:18;;;;;;;12.70;6.30;;;8.90;99.90;;;;;;5004144;28;20462;-52
2021/11/09 01:02:44;;;;;;;10.50;5.97;;;8.80;99.90;;;;;;5002271;28;20438;-51
2021/11/09 01:05:11;;;;;;;12.57;7.00;;;8.70;99.90;;;;;;5003955;28;20475;-50
2021/11/09 01:07:37;;;;;;;12.93;7.07;;;8.60;99.90;;;;;;5005906;28;20495;-52
2021/11/09 01:10:07;;;;;;;8.10;5.43;;;8.60;99.90;;;;;;5003708;28;20843;-51
2021/11/09 01:12:33;;;;;;;16.63;6.37;;;8.40;99.90;;;;;;4999169;28;20189;-54
2021/11/09 01:14:59;;;;;;;8.90;5.63;;;8.40;99.90;;;;;;5004386;28;20475;-51
2021/11/09 01:17:25;;;;;;;11.70;6.33;;;8.40;99.90;;;;;;5002637;28;20440;-48
2021/11/09 01:19:51;;;;;;;10.40;6.10;;;8.40;99.90;;;;;;5000706;28;20929;-49
2021/11/09 01:22:17;;;;;;;11.93;6.60;;;8.40;99.90;;;;;;5002715;28;20195;-52
2021/11/09 01:24:43;;;;;;;10.77;6.23;;;8.50;99.90;;;;;;5002166;28;20300;-49
2021/11/09 01:27:09;;;;;;;10.73;6.33;;;8.10;99.90;;;;;;5003463;28;20579;-48
2021/11/09 01:29:34;;;;;;;9.00;6.00;;;8.10;99.90;;;;;;5004730;28;20192;-50
2021/11/09 01:32:00;;;;;;;9.00;5.87;;;7.90;99.90;;;;;;5015223;28;20200;-51
2021/11/09 01:34:26;;;;;;;10.40;6.50;;;7.80;99.90;;;;;;5005330;28;20272;-52
2021/11/09 01:36:53;;;;;;;14.00;6.50;;;8.00;99.90;;;;;;5002609;28;20188;-48
2021/11/09 01:39:19;;;;;;;13.40;5.60;;;7.90;99.90;;;;;;5004880;28;20605;-48
2021/11/09 01:41:45;;;;;;;13.17;6.17;;;7.90;99.90;;;;;;4999972;28;20434;-54
2021/11/09 01:44:11;;;;;;;13.13;6.10;;;8.10;99.90;;;;;;5000873;28;20468;-48
2021/11/09 01:46:37;;;;;;;11.60;5.70;;;8.20;99.90;;;;;;5002267;28;20178;-50
2021/11/09 01:49:03;;;;;;;13.80;6.60;;;8.20;99.90;;;;;;4999385;28;20438;-47
2021/11/09 01:51:30;;;;;;;10.07;6.00;;;8.40;99.90;;;;;;4998722;28;20186;-52
2021/11/09 01:53:56;;;;;;;9.43;5.03;;;8.30;99.90;;;;;;5001887;28;20439;-48
2021/11/09 01:56:27;;;;;;;7.00;5.60;;;8.30;99.90;;;;;;5000902;28;20428;-52
2021/11/09 01:58:55;;;;;;;11.83;4.90;;;8.30;99.90;;;;;;5003798;28;20594;-48
2021/11/09 02:01:21;;;;;;;8.53;5.43;;;8.40;99.90;;;;;;5002153;28;20486;-52
2021/11/09 02:03:50;;;;;;;7.80;5.60;;;8.30;99.90;;;;;;5004532;28;20555;-49
2021/11/09 02:06:18;;;;;;;9.30;5.27;;;8.10;99.90;;;;;;5000013;28;20583;-51
2021/11/09 02:08:44;;;;;;;8.17;5.33;;;8.20;99.90;;;;;;5000859;28;20444;-50
2021/11/09 02:11:11;;;;;;;7.27;5.60;;;8.30;99.90;;;;;;5000691;28;20790;-51
2021/11/09 02:13:37;;;;;;;10.30;5.40;;;8.40;99.90;;;;;;5004755;28;20499;-47
2021/11/09 02:16:03;;;;;;;8.00;4.40;;;8.40;99.90;;;;;;5002170;28;20440;-51
2021/11/09 02:18:29;;;;;;;7.77;5.23;;;8.40;99.90;;;;;;5000366;28;20236;-50
2021/11/09 02:21:05;;;;;;;15.80;5.50;;;8.40;99.90;;;;;;5000492;28;20437;-49
2021/11/09 02:23:33;;;;;;;7.30;5.00;;;8.30;99.90;;;;;;5003032;28;20588;-53
2021/11/09 02:25:59;;;;;;;9.23;5.50;;;8.30;99.90;;;;;;5002218;28;20478;-52
2021/11/09 02:28:26;;;;;;;11.47;5.70;;;8.10;99.90;;;;;;5003176;28;20436;-50
2021/11/09 02:30:52;;;;;;;12.80;4.83;;;8.10;99.90;;;;;;5002883;28;20429;-52
2021/11/09 02:33:18;;;;;;;6.97;4.33;;;8.20;99.90;;;;;;4998317;28;20444;-53
2021/11/09 02:35:44;;;;;;;7.00;5.60;;;8.30;99.90;;;;;;5005440;28;20603;-50
2021/11/09 02:38:11;;;;;;;11.73;5.40;;;8.20;99.90;;;;;;5005004;28;20184;-48
2021/11/09 02:40:38;;;;;;;11.13;5.17;;;8.30;99.90;;;;;;5001751;28;20188;-51
2021/11/09 02:43:07;;;;;;;7.50;4.90;;;8.40;99.90;;;;;;5004005;28;20435;-47
2021/11/09 02:46:32;;;;;;;5.80;4.80;;;8.30;99.90;;;;;;5002375;28;20464;-50
2021/11/09 02:48:33;;;;;;;7.87;5.73;;;8.30;99.90;;;;;;4992731;28;20450;-48
2021/11/09 02:51:08;;;;;;;16.53;5.37;;;8.30;99.90;;;;;;5002965;28;20429;-48
2021/11/09 02:53:41;;;;;;;6.27;5.13;;;8.20;99.90;;;;;;5001514;28;20455;-47
2021/11/09 02:56:17;;;;;;;12.40;7.30;;;8.20;99.90;;;;;;5001382;28;20809;-50
2021/11/09 02:58:50;;;;;;;7.83;5.37;;;8.20;99.90;;;;;;4997806;28;20816;-49
2021/11/09 03:04:00;;;;;;;6.20;4.80;;;8.20;99.90;;;;;;4999033;28;20971;-53
2021/11/09 03:06:30;;;;;;;9.00;5.20;;;8.20;99.90;;;;;;5002741;28;20893;-52
2021/11/09 03:11:26;;;;;;;12.83;5.43;;;8.30;99.90;;;;;;4998635;28;20802;-52
2021/11/09 03:13:53;;;;;;;7.80;5.20;;;8.20;99.90;;;;;;5005862;28;20492;-49
2021/11/09 03:16:19;;;;;;;7.50;5.40;;;8.00;99.90;;;;;;4998931;28;20429;-49
2021/11/09 03:19:02;;;;;;;8.40;5.27;;;8.00;99.90;;;;;;5000856;28;20444;-49
2021/11/09 03:46:29;;;;;;;6.37;4.87;;;7.80;99.90;;;;;;4999135;28;20847;-51
2021/11/09 03:48:55;;;;;;;7.63;5.10;;;7.80;99.90;;;;;;5003840;28;20424;-53
2021/11/09 03:51:20;;;;;;;10.77;5.63;;;7.80;99.90;;;;;;4999904;28;20440;-50
2021/11/09 03:53:47;;;;;;;8.20;5.23;;;7.70;99.90;;;;;;5004882;28;20205;-48
2021/11/09 03:56:19;;;;;;;10.07;5.17;;;7.70;99.90;;;;;;5000754;28;20196;-52
2021/11/09 03:58:48;;;;;;;8.10;5.40;;;7.70;99.90;;;;;;4998872;28;20470;-53
2021/11/09 04:01:19;;;;;;;9.20;5.20;;;7.60;99.90;;;;;;5002582;28;20494;-50
2021/11/09 04:06:39;;;;;;;11.73;5.80;;;7.70;99.90;;;;;;5003397;28;20451;-51
2021/11/09 04:11:48;;;;;;;6.90;5.17;;;7.70;99.90;;;;;;4999776;28;20575;-49
2021/11/09 04:27:28;;;;;;;9.57;4.70;;;7.50;99.90;;;;;;5000617;28;20415;-47
2021/11/09 04:36:01;;;;;;;9.07;4.83;;;7.60;99.90;;;;;;4999187;28;20431;-53
2021/11/09 05:02:52;;;;;;;8.43;5.43;;;7.60;99.90;;;;;;5000736;28;20434;-50
2021/11/09 05:10:48;;;;;;;9.70;5.50;;;7.40;99.90;;;;;;5003030;28;20443;-52
2021/11/09 05:13:14;;;;;;;8.37;5.63;;;7.40;99.90;;;;;;5000903;28;20538;-48
2021/11/09 05:15:40;;;;;;;13.33;6.43;;;7.40;99.90;;;;;;5001365;28;20735;-49
2021/11/09 05:18:06;;;;;;;11.53;5.67;;;7.40;99.90;;;;;;4998769;28;20509;-51
2021/11/09 05:20:32;;;;;;;12.90;5.70;;;7.30;99.90;;;;;;4999263;28;20454;-52
2021/11/09 05:22:59;;;;;;;10.83;6.87;;;7.30;99.90;;;;;;4998328;28;20193;-53
2021/11/09 05:25:25;;;;;;;10.20;6.87;;;7.30;99.90;;;;;;5001742;28;20216;-50
2021/11/09 05:27:51;;;;;;;9.03;5.70;;;7.40;99.90;;;;;;5006049;28;20439;-51
2021/11/09 05:30:18;;;;;;;9.70;5.67;;;7.40;99.90;;;;;;5001086;28;20437;-48
2021/11/09 05:32:44;;;;;;;14.37;6.10;;;7.40;99.90;;;;;;5005321;28;20928;-51
2021/11/09 05:35:10;;;;;;;15.37;5.87;;;7.40;99.90;;;;;;5005760;28;20477;-52
2021/11/09 05:37:45;;;;;;;7.70;6.00;;;7.50;99.90;;;;;;5000248;28;20508;-50
2021/11/09 05:40:12;;;;;;;11.20;6.13;;;7.50;99.90;;;;;;4984884;28;20438;-48
2021/11/09 05:42:37;;;;;;;12.63;6.67;;;7.30;99.90;;;;;;5000364;28;20959;-53
2021/11/09 05:45:05;;;;;;;11.70;6.27;;;7.20;99.90;;;;;;5004370;28;20471;-49
2021/11/09 05:47:31;;;;;;;12.83;6.40;;;7.20;99.90;;;;;;4988633;28;21039;-47
2021/11/09 05:49:57;;;;;;;13.70;6.87;;;7.30;99.90;;;;;;5001528;28;20431;-49
2021/11/09 05:52:23;;;;;;;9.10;6.67;;;7.20;99.90;;;;;;5005084;28;20650;-49
2021/11/09 05:54:48;;;;;;;9.00;5.80;;;7.30;99.90;;;;;;4999127;28;20551;-52
2021/11/09 05:57:14;;;;;;;11.73;6.30;;;7.10;99.90;;;;;;5005768;28;20997;-51
2021/11/09 05:59:40;;;;;;;11.07;7.17;;;7.20;99.90;;;;;;4998922;28;20654;-48
2021/11/09 06:02:06;;;;;;;13.13;6.33;;;7.20;99.90;;;;;;5004198;28;20333;-48
2021/11/09 06:04:32;;;;;;;13.37;5.97;;;7.20;99.90;;;;;;5001957;28;20476;-51
2021/11/09 06:06:57;;;;;;;8.43;6.00;;;7.20;99.90;;;;;;5000731;28;20955;-49
2021/11/09 06:09:23;;;;;;;7.60;6.20;;;7.30;99.90;;;;;;5006899;28;20188;-50
2021/11/09 06:11:49;;;;;;;12.37;7.20;;;7.30;99.90;;;;;;5000059;28;20626;-47
2021/11/09 06:14:14;;;;;;;8.40;6.40;;;7.30;99.90;;;;;;5004583;28;20209;-52
2021/11/09 06:16:40;;;;;;;8.67;6.10;;;7.20;99.90;;;;;;5000225;28;20193;-51
2021/11/09 06:19:06;;;;;;;13.13;6.30;;;7.30;99.90;;;;;;5001011;28;20212;-50
2021/11/09 06:21:33;;;;;;;9.90;6.70;;;7.20;99.90;;;;;;5005324;28;20205;-51
2021/11/09 06:23:59;;;;;;;10.47;7.13;;;7.30;99.90;;;;;;4984914;28;20480;-51
2021/11/09 06:26:26;;;;;;;15.60;7.27;;;7.30;99.90;;;;;;5000889;28;20534;-51
2021/11/09 06:28:56;;;;;;;11.63;6.60;;;7.20;99.90;;;;;;5002440;28;20609;-53
2021/11/09 06:31:22;;;;;;;14.97;8.33;;;7.20;99.90;;;;;;4997175;28;20434;-51
2021/11/09 06:33:48;;;;;;;12.77;7.23;;;7.00;99.90;;;;;;5002917;28;20480;-50
2021/11/09 06:36:13;;;;;;;9.03;6.73;;;7.00;99.90;;;;;;5002143;28;20436;-49
2021/11/09 06:38:39;;;;;;;10.40;7.33;;;6.80;99.90;;;;;;5004126;28;20658;-49
2021/11/09 06:41:05;;;;;;;13.80;7.80;;;6.90;99.90;;;;;;4998965;28;20193;-51
2021/11/09 06:43:31;;;;;;;11.70;7.03;;;6.90;99.90;;;;;;5004968;28;20209;-52
2021/11/09 06:45:57;;;;;;;13.47;7.87;;;7.00;99.90;;;;;;5002008;28;20472;-48
2021/11/09 06:48:24;;;;;;;10.10;7.57;;;7.00;99.90;;;;;;5001644;28;20187;-53
2021/11/09 06:50:50;;;;;;;11.97;7.70;;;7.00;99.90;;;;;;5002303;28;20440;-49
2021/11/09 06:53:16;;;;;;;13.47;7.67;;;6.80;99.90;;;;;;5000978;28;20506;-53
2021/11/09 06:55:42;;;;;;;11.97;7.63;;;6.80;99.90;;;;;;5001363;28;20441;-53
2021/11/09 06:58:08;;;;;;;16.80;8.53;;;6.70;99.90;;;;;;4999040;28;20220;-52
2021/11/09 07:00:35;;;;;;;13.70;7.33;;;6.80;99.90;;;;;;5004982;28;20433;-51
2021/11/09 07:03:00;;;;;;;13.70;7.90;;;6.80;99.90;;;;;;5001554;28;20491;-52
2021/11/09 07:05:26;;;;;;;18.40;8.33;;;6.80;99.90;;;;;;5000569;28;20484;-49
2021/11/09 07:07:52;;;;;;;30.03;8.93;;;6.70;99.90;;;;;;5004888;28;20208;-52
2021/11/09 07:10:18;;;;;;;17.03;8.83;;;6.80;99.90;;;;;;5002031;28;20470;-50
2021/11/09 07:12:44;;;;;;;16.43;8.90;;;6.80;99.90;;;;;;4997959;28;20528;-51
2021/11/09 07:15:10;;;;;;;12.17;8.40;;;6.80;99.90;;;;;;5001933;28;20213;-52
2021/11/09 07:17:39;;;;;;;16.20;8.30;;;6.80;99.90;;;;;;5001461;28;20432;-51
2021/11/09 07:20:13;;;;;;;13.50;7.77;;;6.90;99.90;;;;;;5002112;28;20810;-52
2021/11/09 07:22:40;;;;;;;16.27;8.80;;;6.90;99.90;;;;;;4999018;28;20431;-50
2021/11/09 07:25:07;;;;;;;12.20;7.60;;;7.00;99.90;;;;;;4987427;28;20862;-52
2021/11/09 07:27:32;;;;;;;15.13;8.00;;;7.00;99.90;;;;;;5000038;28;20436;-51
2021/11/09 07:30:00;;;;;;;13.43;9.37;;;7.00;99.90;;;;;;4998589;28;20932;-50
2021/11/09 07:32:26;;;;;;;12.33;8.50;;;7.00;99.90;;;;;;5001078;28;20180;-50
2021/11/09 07:34:52;;;;;;;19.97;8.30;;;7.00;99.90;;;;;;5001194;28;20447;-47
2021/11/09 07:37:18;;;;;;;14.60;8.20;;;7.00;99.90;;;;;;5000437;28;20803;-53
2021/11/09 07:39:44;;;;;;;12.80;8.13;;;7.00;99.90;;;;;;4998216;28;20181;-51
2021/11/09 07:42:10;;;;;;;11.93;8.70;;;7.00;99.90;;;;;;5003892;28;20458;-51
2021/11/09 07:44:37;;;;;;;14.40;9.50;;;7.00;99.90;;;;;;4997480;28;20491;-49
2021/11/09 07:47:04;;;;;;;17.97;9.57;;;7.00;99.90;;;;;;4996665;28;20436;-52
2021/11/09 07:49:29;;;;;;;20.30;10.00;;;7.10;99.90;;;;;;4999259;28;20879;-48
2021/11/09 07:51:56;;;;;;;15.20;9.13;;;7.10;99.90;;;;;;4997723;28;20459;-54
2021/11/09 07:54:26;;;;;;;16.53;8.40;;;7.10;99.90;;;;;;5002625;28;20218;-49
2021/11/09 07:57:00;;;;;;;13.33;8.33;;;7.10;99.90;;;;;;4998359;28;20490;-48
2021/11/09 08:02:06;;;;;;;25.33;13.40;;;7.20;99.90;;;;;;4996035;28;20983;-51
2021/11/09 08:07:31;;;;;;;14.60;9.20;;;7.30;99.90;;;;;;5000690;28;20490;-51
2021/11/09 08:09:58;;;;;;;13.27;8.77;;;7.30;99.90;;;;;;4996889;28;20436;-48
2021/11/09 08:12:23;;;;;;;14.93;8.20;;;7.30;99.90;;;;;;5002473;28;20490;-48
2021/11/09 08:14:49;;;;;;;13.10;8.10;;;7.40;99.90;;;;;;4999356;28;20458;-54
2021/11/09 08:17:15;;;;;;;16.73;8.33;;;7.40;99.90;;;;;;5003052;28;20287;-48
2021/11/09 08:19:41;;;;;;;23.70;12.93;;;7.40;99.90;;;;;;4998296;28;20279;-49
2021/11/09 08:22:08;;;;;;;16.80;9.43;;;7.50;99.90;;;;;;4999829;28;20559;-48
2021/11/09 08:24:33;;;;;;;15.20;9.73;;;7.60;99.90;;;;;;4999185;28;20471;-48
2021/11/09 08:27:04;;;;;;;11.87;8.43;;;7.60;99.90;;;;;;5001046;28;20797;-48
2021/11/09 08:29:30;;;;;;;15.00;9.13;;;7.60;99.90;;;;;;4998993;28;20189;-52
2021/11/09 08:31:58;;;;;;;14.10;8.80;;;7.50;99.90;;;;;;5000377;28;20458;-48
2021/11/09 08:34:27;;;;;;;14.93;8.97;;;7.50;99.90;;;;;;4985339;28;21047;-54
2021/11/09 08:36:55;;;;;;;13.97;10.10;;;7.60;99.90;;;;;;5000753;28;20819;-50
2021/11/09 08:39:23;;;;;;;14.43;9.13;;;7.60;99.90;;;;;;5002235;28;20494;-48
2021/11/09 08:42:12;;;;;;;16.17;10.60;;;7.60;99.90;;;;;;5000503;28;20505;-48
2021/11/09 08:44:50;;;;;;;17.53;9.80;;;7.70;99.90;;;;;;4996941;28;20495;-51
2021/11/09 08:47:24;;;;;;;12.27;9.57;;;7.80;99.90;;;;;;5000758;28;20451;-51
2021/11/09 08:49:51;;;;;;;18.57;9.93;;;7.80;99.90;;;;;;5000617;28;20433;-51
2021/11/09 08:52:19;;;;;;;17.90;10.40;;;7.80;99.90;;;;;;4997008;28;20455;-49
2021/11/09 08:55:20;;;;;;;17.63;10.07;;;7.90;99.90;;;;;;5002321;28;20976;-50
2021/11/09 09:05:58;;;;;;;11.70;8.47;;;7.90;99.90;;;;;;5003538;28;20548;-49
2021/11/09 09:08:24;;;;;;;14.57;9.57;;;7.90;99.90;;;;;;5000806;28;20494;-50
2021/11/09 09:10:50;;;;;;;11.50;9.00;;;8.00;99.90;;;;;;5003360;28;20178;-48
2021/11/09 09:13:15;;;;;;;12.67;8.07;;;8.20;99.90;;;;;;5003601;28;20244;-51
2021/11/09 09:15:41;;;;;;;13.30;7.90;;;8.20;99.90;;;;;;5003307;28;20536;-50
2021/11/09 09:18:08;;;;;;;11.07;8.07;;;8.30;99.90;;;;;;5005932;28;20347;-48
2021/11/09 09:20:50;;;;;;;13.77;8.97;;;8.40;99.90;;;;;;5001222;28;20220;-48
2021/11/09 09:23:18;;;;;;;12.63;9.37;;;8.40;99.90;;;;;;5003595;28;20436;-50
2021/11/09 09:25:50;;;;;;;18.80;9.43;;;8.30;99.90;;;;;;5003394;28;20480;-50
2021/11/09 09:55:56;;;;;;;13.20;8.67;;;8.70;99.90;;;;;;5001167;28;20447;-50
2021/11/09 09:58:21;;;;;;;14.43;7.10;;;8.70;99.90;;;;;;5002325;28;20448;-51
2021/11/09 10:00:48;;;;;;;10.20;6.97;;;8.80;99.90;;;;;;5004733;28;20449;-51
2021/11/09 10:03:14;;;;;;;8.70;7.33;;;8.80;99.90;;;;;;5001092;28;20240;-51
2021/11/09 10:05:42;;;;;;;12.90;7.27;;;8.80;99.90;;;;;;5002244;28;20468;-50
2021/11/09 10:08:18;;;;;;;15.13;6.97;;;9.00;99.90;;;;;;5001469;28;20200;-52
2021/11/09 10:10:46;;;;;;;10.50;7.87;;;9.00;99.90;;;;;;5001563;28;20486;-53
2021/11/09 10:13:20;;;;;;;8.17;6.30;;;9.10;99.90;;;;;;4998873;28;20436;-49
2021/11/09 10:15:54;;;;;;;12.30;7.40;;;9.20;99.90;;;;;;5003152;28;20463;-52
2021/11/09 10:18:22;;;;;;;14.73;7.17;;;9.30;99.90;;;;;;5000005;28;20922;-53
2021/11/09 10:20:51;;;;;;;9.03;6.97;;;9.40;99.90;;;;;;5000671;28;20441;-51
2021/11/09 10:23:27;;;;;;;10.33;7.17;;;9.40;99.90;;;;;;4986972;28;20861;-51
2021/11/09 10:26:01;;;;;;;12.10;6.90;;;9.50;99.90;;;;;;5001606;28;20841;-49
2021/11/09 10:28:27;;;;;;;11.03;6.57;;;9.50;99.90;;;;;;5004531;28;20948;-52
2021/11/09 10:30:57;;;;;;;7.33;6.30;;;9.60;99.90;;;;;;4998800;28;20939;-53
2021/11/09 10:33:25;;;;;;;10.33;6.90;;;9.60;99.90;;;;;;5004861;28;20526;-50
2021/11/09 10:35:53;;;;;;;8.87;7.33;;;9.70;99.90;;;;;;5001296;28;20428;-52
2021/11/09 10:38:32;;;;;;;15.03;6.20;;;9.70;99.90;;;;;;4998825;28;20475;-50
2021/11/09 10:41:04;;;;;;;8.07;6.00;;;9.70;99.90;;;;;;5012270;28;20478;-53
2021/11/09 10:43:31;;;;;;;9.90;6.93;;;9.90;99.90;;;;;;5003771;28;20807;-50
2021/11/09 10:45:57;;;;;;;11.20;6.43;;;10.00;99.90;;;;;;5000001;28;20747;-52
2021/11/09 10:48:24;;;;;;;7.80;6.10;;;10.10;99.90;;;;;;5017692;28;20467;-52
2021/11/09 10:50:52;;;;;;;11.20;6.73;;;10.00;99.90;;;;;;4995743;28;20423;-51
2021/11/09 11:06:18;;;;;;;9.40;6.93;;;10.40;99.90;;;;;;5012096;28;21042;-50
2021/11/09 11:08:45;;;;;;;11.03;6.90;;;10.50;99.90;;;;;;5002252;28;20451;-53
2021/11/09 11:11:31;;;;;;;8.00;6.00;;;10.60;99.90;;;;;;4998198;28;20417;-51
2021/11/09 11:14:10;;;;;;;10.23;6.17;;;10.60;99.90;;;;;;4999503;28;20465;-51
2021/11/09 11:16:47;;;;;;;8.93;5.70;;;10.60;99.90;;;;;;4997646;28;20512;-52
2021/11/09 11:19:14;;;;;;;8.90;6.37;;;10.70;99.90;;;;;;4995829;28;20471;-50
2021/11/09 11:21:41;;;;;;;10.47;7.47;;;10.80;99.90;;;;;;4996070;28;20440;-53
2021/11/09 11:24:09;;;;;;;10.17;6.33;;;10.80;99.90;;;;;;4999236;28;20448;-53
2021/11/09 11:26:37;;;;;;;11.73;7.23;;;10.80;99.90;;;;;;4995757;28;20424;-51
2021/11/09 11:29:05;;;;;;;9.90;5.30;;;10.90;99.90;;;;;;5001250;28;21142;-49
2021/11/09 11:31:31;;;;;;;9.03;5.50;;;11.00;99.90;;;;;;4998199;28;20485;-52
2021/11/09 11:33:57;;;;;;;9.70;6.03;;;11.10;99.90;;;;;;4997022;28;20444;-49
2021/11/09 11:36:24;;;;;;;6.83;4.97;;;11.10;99.90;;;;;;5001036;28;20458;-52
2021/11/09 11:38:53;;;;;;;4.93;3.83;;;11.10;99.90;;;;;;4996551;28;20792;-52
2021/11/09 11:41:21;;;;;;;9.43;4.37;;;11.10;99.90;;;;;;5000236;28;20433;-52
2021/11/09 11:43:46;;;;;;;9.40;4.33;;;11.10;99.90;;;;;;4996471;28;20464;-52
2021/11/09 11:46:31;;;;;;;6.53;4.10;;;11.20;99.90;;;;;;5000739;28;20869;-52
2021/11/09 11:49:09;;;;;;;8.53;4.60;;;11.30;99.90;;;;;;5000213;28;20268;-50
2021/11/09 11:51:38;;;;;;;14.53;5.70;;;11.30;99.90;;;;;;5001745;28;20474;-47
2021/11/09 11:54:07;;;;;;;6.27;4.00;;;11.40;99.90;;;;;;4992911;28;20455;-52
2021/11/09 11:56:39;;;;;;;8.67;4.57;;;11.50;99.90;;;;;;4999716;28;20431;-50
2021/11/09 11:59:13;;;;;;;8.43;5.30;;;11.60;99.90;;;;;;4994200;28;20987;-52
2021/11/09 12:01:43;;;;;;;7.10;4.67;;;11.80;99.90;;;;;;4998955;28;20534;-49
2021/11/09 12:04:30;;;;;;;8.87;5.43;;;12.10;99.90;;;;;;4996538;28;20450;-49
2021/11/09 12:06:56;;;;;;;8.63;4.83;;;12.70;99.90;;;;;;4997219;28;20932;-51
2021/11/09 12:09:33;;;;;;;10.47;4.77;;;13.20;99.90;;;;;;5004673;28;20447;-51
2021/11/09 12:12:11;;;;;;;7.10;5.50;;;13.50;99.90;;;;;;5002533;28;20234;-52
2021/11/09 12:14:58;;;;;;;5.97;4.80;;;13.80;99.90;;;;;;4998385;28;20796;-49
2021/11/09 12:17:40;;;;;;;14.70;6.70;;;13.90;99.90;;;;;;4999671;28;20531;-50
2021/11/09 12:20:10;;;;;;;7.30;5.10;;;14.10;99.90;;;;;;5003570;28;20493;-49
2021/11/09 12:22:54;;;;;;;7.83;4.80;;;14.10;99.90;;;;;;4998929;28;20439;-53
2021/11/09 12:25:23;;;;;;;11.80;5.67;;;14.00;99.90;;;;;;5000781;28;20526;-53
2021/11/09 12:27:51;;;;;;;8.93;4.87;;;14.10;99.90;;;;;;4998919;28;20424;-52
2021/11/09 12:30:35;;;;;;;13.30;5.47;;;13.90;99.90;;;;;;5000133;28;20837;-51
2021/11/09 12:33:16;;;;;;;5.13;4.50;;;13.90;99.90;;;;;;5003810;28;20444;-49
2021/11/09 12:36:05;;;;;;;7.47;4.87;;;14.00;99.90;;;;;;5000600;28;20471;-51
2021/11/09 12:38:38;;;;;;;7.80;5.10;;;14.10;99.90;;;;;;5005709;28;20448;-52
2021/11/09 12:41:16;;;;;;;10.90;5.40;;;14.20;99.90;;;;;;5006224;28;20443;-48
2021/11/09 12:43:56;;;;;;;9.23;4.70;;;14.30;99.90;;;;;;5003026;28;20929;-52
2021/11/09 12:46:32;;;;;;;8.43;5.10;;;14.40;99.90;;;;;;5008688;28;20514;-53
2021/11/09 12:49:06;;;;;;;7.00;5.40;;;14.10;99.90;;;;;;5003876;28;20818;-50
2021/11/09 12:51:35;;;;;;;6.50;4.77;;;14.10;99.90;;;;;;5005496;28;20415;-49
2021/11/09 12:54:06;;;;;;;7.10;5.07;;;14.20;99.90;;;;;;5006723;28;20444;-51
2021/11/09 12:56:38;;;;;;;6.20;5.03;;;14.40;99.90;;;;;;5003678;28;20455;-54
2021/11/09 12:59:42;;;;;;;6.77;4.40;;;14.40;99.90;;;;;;5014231;28;20440;-49
2021/11/09 13:02:50;;;;;;;8.43;5.47;;;14.50;99.90;;;;;;5005954;28;20427;-50
2021/11/09 13:05:11;;;;;;;5.40;3.90;;;14.70;99.90;;;;;;4999456;28;20475;-51
2021/11/09 13:07:44;;;;;;;14.83;4.07;;;14.70;99.90;;;;;;5004847;28;20434;-51
2021/11/09 13:10:18;;;;;;;8.60;4.70;;;14.60;99.90;;;;;;5006759;28;20412;-53
2021/11/09 13:12:45;;;;;;;8.30;4.10;;;14.50;99.90;;;;;;5004278;28;20427;-51
2021/11/09 13:15:16;;;;;;;7.30;4.33;;;14.50;99.90;;;;;;5000748;28;20547;-49
2021/11/09 13:17:49;;;;;;;6.17;4.43;;;14.60;99.90;;;;;;5005010;28;20519;-51
2021/11/09 13:20:34;;;;;;;7.13;4.23;;;14.70;99.90;;;;;;5003595;28;20426;-49
2021/11/09 13:23:04;;;;;;;6.20;4.40;;;14.80;99.90;;;;;;5001340;28;20420;-52
2021/11/09 13:25:46;;;;;;;6.33;4.10;;;14.80;99.90;;;;;;5005649;28;20914;-49
2021/11/09 13:28:11;;;;;;;4.80;4.13;;;14.80;99.90;;;;;;5000414;28;20425;-48
2021/11/09 13:30:38;;;;;;;6.03;4.10;;;14.80;99.90;;;;;;5001300;28;20509;-51
2021/11/09 13:33:04;;;;;;;11.70;4.37;;;15.00;99.90;;;;;;5006307;28;20184;-52
2021/11/09 13:35:36;;;;;;;8.73;4.77;;;15.00;99.90;;;;;;5002601;28;20428;-50
2021/11/09 13:38:15;;;;;;;8.37;4.03;;;14.90;99.90;;;;;;5002464;28;20193;-49
2021/11/09 13:40:53;;;;;;;6.97;4.63;;;15.00;99.90;;;;;;5001966;28;20428;-47
2021/11/09 13:43:23;;;;;;;8.50;4.50;;;14.70;99.90;;;;;;4989490;28;20443;-54
2021/11/09 13:46:05;;;;;;;6.13;3.70;;;14.70;99.90;;;;;;5001728;28;20482;-51
2021/11/09 13:48:33;;;;;;;6.70;4.40;;;14.60;99.90;;;;;;5000018;28;20492;-51
2021/11/09 13:51:03;;;;;;;7.90;4.30;;;14.70;99.90;;;;;;5004007;28;20439;-50
2021/11/09 13:53:41;;;;;;;6.83;3.73;;;14.80;99.90;;;;;;5004011;28;20448;-52
2021/11/09 13:56:12;;;;;;;6.30;4.47;;;14.70;99.90;;;;;;5000585;28;20448;-50
2021/11/09 13:58:38;;;;;;;5.77;3.40;;;14.80;99.90;;;;;;5003904;28;20412;-49
2021/11/09 14:01:04;;;;;;;7.53;4.13;;;14.80;99.90;;;;;;5003821;28;20447;-49
2021/11/09 14:16:56;;;;;;;6.57;3.50;;;14.60;99.90;;;;;;4997938;28;20964;-49
2021/11/09 14:19:31;;;;;;;5.20;4.10;;;14.70;99.90;;;;;;5004605;28;20247;-49
2021/11/09 14:21:58;;;;;;;3.60;3.17;;;14.60;99.90;;;;;;5002861;28;20524;-52
2021/11/09 14:24:27;;;;;;;6.80;3.60;;;14.60;99.90;;;;;;5002117;28;20451;-48
2021/11/09 14:27:13;;;;;;;7.03;3.53;;;14.60;99.90;;;;;;5002832;28;20436;-53
2021/11/09 14:29:54;;;;;;;4.80;3.70;;;14.40;99.90;;;;;;4998999;28;20429;-47
2021/11/09 14:32:26;;;;;;;6.63;3.80;;;14.20;99.90;;;;;;5002855;28;21056;-50
2021/11/09 14:35:05;;;;;;;7.73;3.13;;;14.30;99.90;;;;;;5002650;28;20471;-49
2021/11/09 14:37:41;;;;;;;4.00;3.07;;;14.30;99.90;;;;;;5005142;28;20427;-52
2021/11/09 14:40:13;;;;;;;4.97;3.60;;;14.30;99.90;;;;;;5000556;28;20441;-51
2021/11/09 14:45:26;;;;;;;5.77;3.13;;;14.30;99.90;;;;;;5001611;28;20467;-51
2021/11/09 14:47:56;;;;;;;6.93;3.57;;;14.40;99.90;;;;;;5003997;28;20409;-49
2021/11/09 14:50:45;;;;;;;9.17;4.07;;;14.40;99.90;;;;;;5001136;28;21392;-52
2021/11/09 14:53:18;;;;;;;8.50;3.80;;;14.30;99.90;;;;;;5006150;28;20420;-53
2021/11/09 14:55:52;;;;;;;6.80;3.50;;;14.30;99.90;;;;;;5000771;28;20486;-50
2021/11/09 14:58:53;;;;;;;3.77;3.33;;;14.30;99.90;;;;;;4997233;28;20451;-49
2021/11/09 15:01:29;;;;;;;4.20;2.93;;;14.00;99.90;;;;;;5000836;28;20447;-52
2021/11/09 15:04:01;;;;;;;3.97;2.60;;;13.90;99.90;;;;;;5001710;28;20510;-52
2021/11/09 15:12:08;;;;;;;4.80;3.93;;;13.70;99.90;;;;;;5001569;28;20441;-49
2021/11/09 15:30:53;;;;;;;4.60;3.13;;;13.60;99.90;;;;;;4993060;28;20467;-49
2021/11/09 15:38:21;;;;;;;6.03;3.50;;;13.20;99.90;;;;;;4995770;28;20444;-52
2021/11/09 15:40:52;;;;;;;6.60;3.00;;;13.40;99.90;;;;;;5001863;28;20428;-51
2021/11/09 15:43:17;;;;;;;5.30;2.83;;;13.40;99.90;;;;;;5000557;28;20514;-52
2021/11/09 15:45:43;;;;;;;6.60;3.10;;;13.40;99.90;;;;;;4998418;28;21001;-54
2021/11/09 15:48:09;;;;;;;5.43;3.17;;;13.30;99.90;;;;;;5000046;28;21470;-52
2021/11/09 15:50:35;;;;;;;6.40;3.37;;;13.30;99.90;;;;;;4997251;28;20196;-52
2021/11/09 15:53:02;;;;;;;4.33;3.93;;;13.20;99.90;;;;;;4999160;28;20420;-51
2021/11/09 15:55:28;;;;;;;4.60;3.07;;;13.30;99.90;;;;;;4998802;28;20448;-49
2021/11/09 15:57:53;;;;;;;4.67;3.20;;;13.30;99.90;;;;;;4979905;28;20949;-51
2021/11/09 16:00:19;;;;;;;6.40;3.13;;;13.20;99.90;;;;;;4997840;28;20924;-53
2021/11/09 16:02:46;;;;;;;9.10;3.13;;;13.20;99.90;;;;;;4996447;28;20185;-53